createdAt,value
2018-09-23T00:02:24.602Z,14.16
2018-09-23T00:04:53.329Z,14.08
2018-09-23T00:07:22.098Z,14.12
2018-09-23T00:09:50.926Z,14.12
2018-09-23T00:12:19.630Z,14.13
2018-09-23T00:14:48.468Z,14.16
2018-09-23T00:17:17.189Z,14.17
2018-09-23T00:19:45.842Z,14.24
2018-09-23T00:22:14.674Z,14.05
2018-09-23T00:24:43.660Z,13.97
2018-09-23T00:27:13.078Z,13.99
2018-09-23T00:29:47.016Z,13.98
2018-09-23T00:32:15.785Z,14.00
2018-09-23T00:34:44.876Z,14.05
2018-09-23T00:37:13.520Z,14.02
2018-09-23T00:39:42.298Z,14.06
2018-09-23T00:42:11.135Z,14.08
2018-09-23T00:44:39.778Z,14.01
2018-09-23T00:47:08.833Z,14.07
2018-09-23T00:49:37.722Z,13.99
2018-09-23T00:52:06.566Z,14.00
2018-09-23T00:54:35.315Z,13.97
2018-09-23T00:57:03.981Z,14.03
2018-09-23T00:59:32.857Z,13.96
2018-09-23T01:02:01.507Z,13.96
2018-09-23T01:04:30.190Z,13.91
2018-09-23T01:07:00.422Z,13.92
2018-09-23T01:09:29.226Z,13.88
2018-09-23T01:11:57.930Z,13.78
2018-09-23T01:14:26.631Z,13.76
2018-09-23T01:16:55.399Z,13.78
2018-09-23T01:19:24.118Z,13.96
2018-09-23T01:21:52.746Z,13.93
2018-09-23T01:24:21.437Z,13.86
2018-09-23T01:26:50.122Z,13.85
2018-09-23T01:29:18.752Z,13.87
2018-09-23T01:31:47.643Z,13.82
2018-09-23T01:34:23.709Z,13.87
2018-09-23T01:36:52.830Z,13.80
2018-09-23T01:39:21.812Z,13.77
2018-09-23T01:41:50.817Z,13.78
2018-09-23T01:44:19.855Z,13.78
2018-09-23T01:46:48.848Z,13.76
2018-09-23T01:49:17.924Z,13.71
2018-09-23T01:51:46.974Z,13.64
2018-09-23T01:54:16.465Z,13.61
2018-09-23T01:56:45.468Z,13.55
2018-09-23T01:59:14.535Z,13.50
2018-09-23T02:01:43.561Z,13.53
2018-09-23T02:04:12.538Z,13.49
2018-09-23T02:06:41.638Z,13.55
2018-09-23T02:09:10.820Z,13.66
2018-09-23T02:11:39.827Z,13.40
2018-09-23T02:14:09.137Z,13.50
2018-09-23T02:16:38.343Z,13.55
2018-09-23T02:19:07.782Z,13.49
2018-09-23T02:21:36.923Z,13.47
2018-09-23T02:24:05.910Z,13.45
2018-09-23T02:26:34.986Z,13.32
2018-09-23T02:29:03.971Z,13.25
2018-09-23T02:31:33.090Z,13.24
2018-09-23T02:34:02.114Z,13.29
2018-09-23T02:36:31.018Z,13.38
2018-09-23T02:38:59.798Z,13.24
2018-09-23T02:41:28.773Z,13.37
2018-09-23T02:43:57.882Z,13.37
2018-09-23T02:46:26.630Z,13.31
2018-09-23T02:48:55.365Z,13.30
2018-09-23T02:51:24.262Z,13.24
2018-09-23T02:53:52.907Z,13.22
2018-09-23T02:56:21.693Z,13.23
2018-09-23T02:58:50.402Z,13.04
2018-09-23T03:01:19.048Z,13.12
2018-09-23T03:03:47.902Z,13.13
2018-09-23T03:06:16.825Z,13.16
2018-09-23T03:08:45.639Z,13.00
2018-09-23T03:11:14.297Z,12.99
2018-09-23T03:13:42.954Z,12.93
2018-09-23T03:16:11.837Z,12.84
2018-09-23T03:18:40.810Z,12.75
2018-09-23T03:21:09.595Z,12.81
2018-09-23T03:23:38.270Z,12.86
2018-09-23T03:26:06.905Z,12.76
2018-09-23T03:28:35.774Z,12.88
2018-09-23T03:31:04.421Z,12.82
2018-09-23T03:33:33.041Z,12.62
2018-09-23T03:36:01.739Z,12.73
2018-09-23T03:38:30.580Z,12.70
2018-09-23T03:40:59.427Z,12.66
2018-09-23T03:43:28.233Z,12.78
2018-09-23T03:45:56.899Z,12.72
2018-09-23T03:48:25.649Z,12.66
2018-09-23T03:50:54.816Z,12.78
2018-09-23T03:53:23.652Z,12.70
2018-09-23T03:55:52.342Z,12.75
2018-09-23T03:58:21.025Z,12.78
2018-09-23T04:00:49.697Z,12.76
2018-09-23T04:03:18.391Z,12.81
2018-09-23T04:05:47.307Z,12.84
2018-09-23T04:08:16.149Z,12.92
2018-09-23T04:10:44.927Z,12.94
2018-09-23T04:13:13.654Z,12.82
2018-09-23T04:15:42.302Z,12.88
2018-09-23T04:18:11.105Z,12.76
2018-09-23T04:20:39.724Z,12.80
2018-09-23T04:23:08.726Z,12.70
2018-09-23T04:25:37.485Z,12.72
2018-09-23T04:28:06.573Z,12.79
2018-09-23T04:30:35.401Z,12.76
2018-09-23T04:33:04.174Z,12.75
2018-09-23T04:35:32.910Z,12.63
2018-09-23T04:38:01.581Z,12.74
2018-09-23T04:40:30.234Z,12.60
2018-09-23T04:42:59.066Z,12.73
2018-09-23T04:45:27.690Z,12.66
2018-09-23T04:47:56.370Z,12.60
2018-09-23T04:50:25.046Z,12.66
2018-09-23T04:52:53.762Z,12.58
2018-09-23T04:55:22.488Z,12.57
2018-09-23T04:57:51.120Z,12.66
2018-09-23T05:00:19.913Z,12.68
2018-09-23T05:02:48.773Z,12.72
2018-09-23T05:05:17.423Z,12.72
2018-09-23T05:07:46.581Z,12.73
2018-09-23T05:10:15.758Z,12.68
2018-09-23T05:12:44.491Z,12.72
2018-09-23T05:15:13.165Z,12.67
2018-09-23T05:17:41.919Z,12.66
2018-09-23T05:20:10.778Z,12.71
2018-09-23T05:22:39.417Z,12.59
2018-09-23T05:25:08.123Z,12.53
2018-09-23T05:27:36.913Z,12.48
2018-09-23T05:30:05.907Z,12.58
2018-09-23T05:32:34.696Z,12.65
2018-09-23T05:35:03.359Z,12.66
2018-09-23T05:37:32.113Z,12.51
2018-09-23T05:40:00.952Z,12.63
2018-09-23T05:42:29.887Z,12.71
2018-09-23T05:44:58.879Z,12.50
2018-09-23T05:47:27.506Z,12.65
2018-09-23T05:49:56.229Z,12.69
2018-09-23T05:52:24.908Z,12.69
2018-09-23T05:54:53.786Z,12.61
2018-09-23T05:57:22.499Z,12.73
2018-09-23T05:59:51.162Z,12.78
2018-09-23T06:02:19.942Z,12.74
2018-09-23T06:04:48.678Z,12.70
2018-09-23T06:07:17.491Z,12.84
2018-09-23T06:09:46.271Z,12.91
2018-09-23T06:12:15.016Z,12.89
2018-09-23T06:14:43.710Z,12.99
2018-09-23T06:17:12.517Z,13.08
2018-09-23T06:19:41.146Z,13.03
2018-09-23T06:22:10.040Z,13.05
2018-09-23T06:24:38.757Z,13.12
2018-09-23T06:27:07.421Z,13.16
2018-09-23T06:29:36.153Z,13.32
2018-09-23T06:32:05.059Z,13.35
2018-09-23T06:34:34.063Z,13.38
2018-09-23T06:37:02.783Z,13.36
2018-09-23T06:39:31.498Z,13.48
2018-09-23T06:42:00.199Z,13.49
2018-09-23T06:44:30.707Z,13.61
2018-09-23T06:47:00.453Z,13.87
2018-09-23T06:49:29.739Z,13.82
2018-09-23T06:51:58.381Z,14.04
2018-09-23T06:54:27.526Z,14.03
2018-09-23T06:56:56.225Z,14.16
2018-09-23T06:59:25.201Z,13.96
2018-09-23T07:01:53.841Z,13.69
2018-09-23T07:04:22.777Z,13.64
2018-09-23T07:06:51.579Z,13.72
2018-09-23T07:09:20.962Z,13.75
2018-09-23T07:11:49.737Z,13.94
2018-09-23T07:14:18.438Z,14.07
2018-09-23T07:16:47.078Z,14.23
2018-09-23T07:19:15.809Z,14.13
2018-09-23T07:21:44.457Z,14.10
2018-09-23T07:24:14.065Z,14.10
2018-09-23T07:26:42.888Z,14.33
2018-09-23T07:29:11.533Z,14.40
2018-09-23T07:31:40.285Z,14.38
2018-09-23T07:34:08.974Z,14.31
2018-09-23T07:36:37.780Z,14.42
2018-09-23T07:39:08.157Z,14.44
2018-09-23T07:41:36.797Z,14.49
2018-09-23T07:44:05.872Z,14.54
2018-09-23T07:46:34.755Z,14.59
2018-09-23T07:49:03.426Z,14.51
2018-09-23T07:51:32.754Z,14.38
2018-09-23T07:54:01.366Z,14.46
2018-09-23T07:56:30.248Z,14.60
2018-09-23T07:58:58.966Z,14.65
2018-09-23T08:01:27.750Z,14.77
2018-09-23T08:03:56.424Z,14.93
2018-09-23T08:06:25.202Z,14.89
2018-09-23T08:08:54.959Z,14.90
2018-09-23T08:11:23.664Z,14.89
2018-09-23T08:13:52.565Z,14.90
2018-09-23T08:16:21.167Z,14.89
2018-09-23T08:18:49.797Z,14.86
2018-09-23T08:21:18.503Z,14.88
2018-09-23T08:23:47.202Z,14.89
2018-09-23T08:26:15.835Z,15.08
2018-09-23T08:28:44.632Z,15.13
2018-09-23T08:31:13.296Z,15.07
2018-09-23T08:33:42.191Z,15.00
2018-09-23T08:36:10.974Z,14.97
2018-09-23T08:38:39.828Z,15.07
2018-09-23T08:41:08.875Z,15.09
2018-09-23T08:43:37.583Z,15.15
2018-09-23T08:46:06.608Z,15.30
2018-09-23T08:48:35.461Z,15.30
2018-09-23T08:51:04.493Z,15.23
2018-09-23T08:53:33.211Z,15.29
2018-09-23T08:56:01.994Z,15.48
2018-09-23T08:58:30.782Z,15.49
2018-09-23T09:00:59.546Z,15.57
2018-09-23T09:03:28.314Z,15.65
2018-09-23T09:05:57.062Z,15.71
2018-09-23T09:08:25.794Z,15.64
2018-09-23T09:10:54.560Z,15.72
2018-09-23T09:13:23.377Z,15.77
2018-09-23T09:15:52.022Z,16.01
2018-09-23T09:18:20.873Z,16.20
2018-09-23T09:20:49.646Z,16.43
2018-09-23T09:23:18.338Z,16.53
2018-09-23T09:25:47.041Z,16.36
2018-09-23T09:28:15.906Z,16.68
2018-09-23T09:30:44.703Z,16.80
2018-09-23T09:33:13.574Z,16.88
2018-09-23T09:35:42.707Z,16.88
2018-09-23T09:38:11.409Z,17.09
2018-09-23T09:40:40.056Z,17.12
2018-09-23T09:43:08.758Z,17.35
2018-09-23T09:45:37.749Z,17.46
2018-09-23T09:48:06.588Z,17.65
2018-09-23T09:50:35.569Z,17.55
2018-09-23T09:53:04.205Z,17.64
2018-09-23T09:55:32.862Z,17.82
2018-09-23T09:58:01.723Z,17.94
2018-09-23T10:00:33.288Z,17.64
2018-09-23T10:03:02.986Z,17.85
2018-09-23T10:05:31.611Z,17.75
2018-09-23T10:08:00.330Z,17.89
2018-09-23T10:10:29.046Z,17.89
2018-09-23T10:12:58.112Z,17.88
2018-09-23T10:15:26.922Z,17.90
2018-09-23T10:17:55.557Z,17.91
2018-09-23T10:20:24.271Z,18.06
2018-09-23T10:22:53.347Z,18.08
2018-09-23T10:25:22.078Z,18.18
2018-09-23T10:27:50.937Z,18.17
2018-09-23T10:30:19.641Z,18.23
2018-09-23T10:32:48.308Z,18.41
2018-09-23T10:35:17.343Z,18.40
2018-09-23T10:37:46.062Z,18.48
2018-09-23T10:40:14.788Z,18.60
2018-09-23T10:42:43.565Z,18.44
2018-09-23T10:45:12.467Z,18.34
2018-09-23T10:47:41.390Z,18.37
2018-09-23T10:50:10.379Z,18.44
2018-09-23T10:52:39.062Z,18.46
2018-09-23T10:55:07.842Z,18.58
2018-09-23T10:57:36.630Z,18.68
2018-09-23T11:00:05.583Z,18.74
2018-09-23T11:02:34.237Z,18.87
2018-09-23T11:05:02.904Z,18.91
2018-09-23T11:07:31.672Z,19.03
2018-09-23T11:10:00.427Z,19.17
2018-09-23T11:12:29.390Z,19.10
2018-09-23T11:14:58.147Z,19.10
2018-09-23T11:17:27.057Z,19.34
2018-09-23T11:19:55.991Z,19.17
2018-09-23T11:22:24.676Z,19.18
2018-09-23T11:24:53.462Z,19.32
2018-09-23T11:27:22.338Z,19.27
2018-09-23T11:29:51.022Z,19.25
2018-09-23T11:32:20.096Z,19.27
2018-09-23T11:34:51.833Z,19.32
2018-09-23T11:37:20.965Z,19.29
2018-09-23T11:39:49.762Z,19.29
2018-09-23T11:42:18.391Z,19.30
2018-09-23T11:44:47.111Z,19.23
2018-09-23T11:47:15.830Z,19.32
2018-09-23T11:49:44.706Z,19.40
2018-09-23T11:52:13.491Z,19.38
2018-09-23T11:54:42.250Z,19.34
2018-09-23T11:57:10.954Z,19.36
2018-09-23T11:59:39.642Z,19.38
2018-09-23T12:02:08.830Z,19.35
2018-09-23T12:04:37.615Z,19.33
2018-09-23T12:07:06.720Z,19.42
2018-09-23T12:09:35.419Z,19.41
2018-09-23T12:12:04.214Z,19.50
2018-09-23T12:14:33.063Z,19.45
2018-09-23T12:17:01.745Z,19.49
2018-09-23T12:19:30.489Z,19.61
2018-09-23T12:21:59.379Z,19.70
2018-09-23T12:24:29.766Z,19.99
2018-09-23T12:26:58.591Z,20.14
2018-09-23T12:29:27.367Z,20.23
2018-09-23T12:31:56.042Z,20.39
2018-09-23T12:34:24.915Z,20.59
2018-09-23T12:36:53.834Z,20.71
2018-09-23T12:39:22.559Z,20.64
2018-09-23T12:41:51.246Z,20.55
2018-09-23T12:44:19.883Z,20.56
2018-09-23T12:46:48.811Z,20.55
2018-09-23T12:49:17.487Z,20.53
2018-09-23T12:51:46.198Z,20.58
2018-09-23T12:54:14.890Z,20.73
2018-09-23T12:56:43.546Z,20.79
2018-09-23T12:59:12.411Z,20.87
2018-09-23T13:01:41.115Z,20.94
2018-09-23T13:04:09.926Z,21.04
2018-09-23T13:06:38.906Z,21.13
2018-09-23T13:09:08.501Z,21.27
2018-09-23T13:11:37.163Z,21.49
2018-09-23T13:14:06.352Z,21.93
2018-09-23T13:16:35.065Z,22.84
2018-09-23T13:19:04.186Z,22.81
2018-09-23T13:21:33.206Z,22.86
2018-09-23T13:24:01.880Z,22.82
2018-09-23T13:26:30.878Z,22.61
2018-09-23T13:28:59.663Z,22.51
2018-09-23T13:31:28.402Z,22.44
2018-09-23T13:33:57.121Z,22.78
2018-09-23T13:36:25.921Z,23.43
2018-09-23T13:38:54.810Z,23.73
2018-09-23T13:41:23.540Z,25.23
2018-09-23T13:43:52.418Z,26.73
2018-09-23T13:46:21.108Z,26.98
2018-09-23T13:48:49.775Z,26.82
2018-09-23T13:51:18.657Z,27.10
2018-09-23T13:53:47.410Z,28.41
2018-09-23T13:56:16.253Z,28.13
2018-09-23T13:58:45.071Z,27.23
2018-09-23T14:01:13.757Z,26.68
2018-09-23T14:03:42.594Z,26.02
2018-09-23T14:06:11.290Z,25.77
2018-09-23T14:08:40.149Z,24.85
2018-09-23T14:11:09.258Z,24.40
2018-09-23T14:13:38.123Z,23.92
2018-09-23T14:16:07.202Z,23.74
2018-09-23T14:18:36.111Z,23.84
2018-09-23T14:21:04.840Z,23.79
2018-09-23T14:23:33.642Z,23.83
2018-09-23T14:26:02.338Z,23.86
2018-09-23T14:28:31.045Z,23.95
2018-09-23T14:30:59.748Z,24.00
2018-09-23T14:33:28.453Z,24.10
2018-09-23T14:35:57.267Z,23.98
2018-09-23T14:38:26.049Z,24.01
2018-09-23T14:40:54.846Z,24.05
2018-09-23T14:43:23.747Z,24.02
2018-09-23T14:45:52.477Z,24.02
2018-09-23T14:48:21.424Z,24.05
2018-09-23T14:50:50.228Z,24.14
2018-09-23T14:53:18.906Z,24.11
2018-09-23T14:55:47.585Z,24.20
2018-09-23T14:58:16.352Z,24.23
2018-09-23T15:00:45.337Z,24.19
2018-09-23T15:03:14.052Z,24.21
2018-09-23T15:05:42.992Z,24.16
2018-09-23T15:08:11.790Z,24.18
2018-09-23T15:10:40.573Z,24.06
2018-09-23T15:13:09.718Z,23.95
2018-09-23T15:15:38.510Z,23.88
2018-09-23T15:18:07.475Z,23.85
2018-09-23T15:20:36.502Z,23.82
2018-09-23T15:23:05.571Z,23.80
2018-09-23T15:25:34.485Z,23.84
2018-09-23T15:28:03.164Z,24.01
2018-09-23T15:30:32.025Z,23.99
2018-09-23T15:33:00.746Z,23.90
2018-09-23T15:35:29.623Z,23.83
2018-09-23T15:37:58.335Z,23.76
2018-09-23T15:40:27.075Z,23.73
2018-09-23T15:42:55.779Z,23.68
2018-09-23T15:45:24.498Z,23.66
2018-09-23T15:47:53.226Z,23.55
2018-09-23T15:50:21.920Z,23.61
2018-09-23T15:52:50.693Z,23.59
2018-09-23T15:55:19.515Z,23.57
2018-09-23T15:57:48.384Z,23.56
2018-09-23T16:00:17.103Z,23.45
2018-09-23T16:02:45.759Z,23.47
2018-09-23T16:05:14.454Z,23.33
2018-09-23T16:07:43.175Z,22.03
2018-09-23T16:10:11.990Z,21.35
2018-09-23T16:12:40.840Z,21.02
2018-09-23T16:15:09.505Z,20.90
2018-09-23T16:17:38.334Z,20.79
2018-09-23T16:20:07.210Z,20.56
2018-09-23T16:22:35.981Z,20.19
2018-09-23T16:25:04.714Z,20.18
2018-09-23T16:27:33.445Z,19.96
2018-09-23T16:30:02.308Z,19.86
2018-09-23T16:32:31.090Z,19.96
2018-09-23T16:34:59.738Z,19.21
2018-09-23T16:37:28.419Z,17.17
2018-09-23T16:39:57.057Z,16.34
2018-09-23T16:42:25.742Z,15.95
2018-09-23T16:44:54.590Z,15.56
2018-09-23T16:47:23.578Z,15.40
2018-09-23T16:49:52.295Z,15.30
2018-09-23T16:52:21.055Z,15.31
2018-09-23T17:47:47.075Z,-145.74
2018-09-23T17:51:35.886Z,-145.74
2018-09-23T18:39:53.503Z,-145.74
2018-09-23T18:42:27.857Z,-145.74
2018-09-23T18:44:56.709Z,-145.74
2018-09-23T18:51:54.286Z,-145.74
2018-09-23T18:54:29.827Z,-145.74
2018-09-23T18:57:00.766Z,-145.74
2018-09-23T19:08:57.485Z,-145.74
2018-09-23T19:11:58.846Z,-145.74
2018-09-23T19:14:27.609Z,-145.74
2018-09-23T19:18:41.390Z,-145.74
2018-09-23T19:21:13.158Z,-145.74
